createdAt,value
2023-07-22T00:02:20.335Z,3.30
2023-07-22T00:04:48.511Z,4.17
2023-07-22T00:07:18.107Z,2.53
2023-07-22T00:09:46.495Z,3.57
2023-07-22T00:12:14.777Z,2.80
2023-07-22T00:14:44.759Z,2.73
2023-07-22T00:17:12.932Z,2.90
2023-07-22T00:19:41.030Z,3.47
2023-07-22T00:22:09.088Z,2.93
2023-07-22T00:24:38.831Z,3.67
2023-07-22T00:27:09.733Z,3.37
2023-07-22T00:29:37.991Z,2.70
2023-07-22T00:32:09.910Z,2.47
2023-07-22T00:34:38.227Z,2.67
2023-07-22T00:37:06.569Z,2.47
2023-07-22T00:39:35.187Z,3.37
2023-07-22T00:42:04.755Z,3.20
2023-07-22T00:44:32.777Z,3.50
2023-07-22T00:47:01.000Z,3.00
2023-07-22T00:49:30.756Z,2.97
2023-07-22T00:52:01.431Z,2.80
2023-07-22T00:54:29.471Z,2.57
2023-07-22T00:56:59.250Z,2.93
2023-07-22T00:59:29.241Z,2.90
2023-07-22T01:01:57.478Z,3.70
2023-07-22T01:04:27.025Z,2.47
2023-07-22T01:06:56.185Z,4.07
2023-07-22T01:09:24.256Z,2.80
2023-07-22T01:11:52.336Z,4.63
2023-07-22T01:14:20.372Z,3.77
2023-07-22T01:16:49.789Z,2.83
2023-07-22T01:19:21.080Z,4.10
2023-07-22T01:21:50.459Z,4.20
2023-07-22T01:24:20.126Z,4.63
2023-07-22T01:26:48.971Z,3.10
2023-07-22T01:29:17.203Z,3.13
2023-07-22T01:31:49.464Z,3.77
2023-07-22T01:34:18.102Z,2.90
2023-07-22T01:36:47.215Z,3.50
2023-07-22T01:39:15.408Z,3.17
2023-07-22T01:41:45.296Z,3.27
2023-07-22T01:44:13.543Z,3.50
2023-07-22T01:46:42.395Z,4.23
2023-07-22T01:49:13.845Z,6.13
2023-07-22T01:51:42.455Z,3.97
2023-07-22T01:54:11.267Z,3.93
2023-07-22T01:56:40.303Z,4.13
2023-07-22T01:59:10.803Z,3.90
2023-07-22T02:01:38.824Z,4.03
2023-07-22T02:04:07.818Z,4.30
2023-07-22T02:06:36.544Z,3.00
2023-07-22T02:09:09.836Z,5.10
2023-07-22T02:11:38.648Z,3.97
2023-07-22T02:14:08.461Z,4.87
2023-07-22T02:16:38.976Z,3.00
2023-07-22T02:19:07.674Z,4.93
2023-07-22T02:21:35.782Z,3.57
2023-07-22T02:24:03.895Z,4.30
2023-07-22T02:26:31.940Z,3.50
2023-07-22T02:29:00.006Z,4.17
2023-07-22T02:31:28.090Z,3.33
2023-07-22T02:33:57.821Z,3.20
2023-07-22T02:36:26.309Z,4.17
2023-07-22T02:38:54.613Z,4.03
2023-07-22T02:41:23.075Z,3.53
2023-07-22T02:43:51.099Z,3.67
2023-07-22T02:46:19.292Z,3.57
2023-07-22T02:48:47.431Z,3.43
2023-07-22T02:51:17.165Z,5.03
2023-07-22T02:53:48.014Z,4.47
2023-07-22T02:56:16.555Z,5.03
2023-07-22T02:58:44.977Z,4.90
2023-07-22T03:01:13.245Z,4.57
2023-07-22T03:03:42.154Z,5.33
2023-07-22T03:06:11.116Z,3.77
2023-07-22T03:08:40.888Z,3.80
2023-07-22T03:11:08.950Z,5.33
2023-07-22T03:13:37.045Z,3.83
2023-07-22T03:16:05.881Z,3.63
2023-07-22T03:18:34.352Z,5.23
2023-07-22T03:21:02.408Z,3.87
2023-07-22T03:23:30.620Z,4.00
2023-07-22T03:25:59.987Z,3.83
2023-07-22T03:28:28.258Z,4.70
2023-07-22T03:30:56.367Z,4.63
2023-07-22T03:33:24.450Z,4.27
2023-07-22T03:35:52.707Z,3.63
2023-07-22T03:38:20.808Z,4.27
2023-07-22T03:40:48.854Z,4.00
2023-07-22T03:43:18.470Z,4.67
2023-07-22T03:45:46.580Z,4.60
2023-07-22T03:48:15.005Z,6.03
2023-07-22T03:50:43.346Z,6.30
2023-07-22T03:53:11.353Z,4.20
2023-07-22T03:55:39.355Z,4.40
2023-07-22T03:58:07.349Z,4.50
2023-07-22T04:00:37.009Z,4.53
2023-07-22T04:03:05.228Z,5.27
2023-07-22T04:05:33.519Z,4.30
2023-07-22T04:08:01.721Z,4.70
2023-07-22T04:10:29.935Z,5.47
2023-07-22T04:12:57.921Z,4.63
2023-07-22T04:15:26.150Z,5.63
2023-07-22T04:17:55.634Z,5.53
2023-07-22T04:20:25.501Z,5.20
2023-07-22T04:22:53.567Z,5.57
2023-07-22T04:25:21.827Z,5.50
2023-07-22T04:27:50.016Z,5.57
2023-07-22T04:30:21.860Z,5.67
2023-07-22T04:32:50.878Z,5.80
2023-07-22T04:35:20.620Z,5.27
2023-07-22T04:37:48.692Z,5.47
2023-07-22T04:40:18.107Z,6.00
2023-07-22T04:42:47.311Z,7.37
2023-07-22T04:45:15.314Z,5.33
2023-07-22T04:47:45.538Z,5.50
2023-07-22T04:50:13.787Z,5.63
2023-07-22T04:52:45.039Z,6.47
2023-07-22T04:55:13.562Z,6.03
2023-07-22T04:57:43.198Z,6.43
2023-07-22T05:00:14.554Z,8.10
2023-07-22T05:02:43.908Z,6.23
2023-07-22T05:05:12.085Z,5.80
2023-07-22T05:07:40.169Z,5.67
2023-07-22T05:10:13.503Z,6.30
2023-07-22T05:12:41.798Z,5.50
2023-07-22T05:15:12.094Z,6.20
2023-07-22T05:17:40.173Z,6.93
2023-07-22T05:20:11.204Z,5.20
2023-07-22T05:22:39.440Z,5.17
2023-07-22T05:25:10.801Z,4.63
2023-07-22T05:27:39.203Z,4.90
2023-07-22T05:30:16.266Z,3.87
2023-07-22T05:32:48.240Z,4.40
2023-07-22T05:35:16.383Z,8.73
2023-07-22T05:37:44.577Z,5.73
2023-07-22T05:40:14.106Z,4.53
2023-07-22T05:42:42.345Z,6.43
2023-07-22T05:45:14.952Z,4.73
2023-07-22T05:47:43.103Z,4.27
2023-07-22T05:50:11.742Z,5.70
2023-07-22T05:52:39.847Z,4.20
2023-07-22T05:55:08.693Z,4.73
2023-07-22T05:57:38.568Z,4.73
2023-07-22T06:00:09.974Z,5.00
2023-07-22T06:02:38.767Z,5.13
2023-07-22T06:05:07.550Z,5.03
2023-07-22T06:07:35.701Z,6.77
2023-07-22T06:10:03.986Z,4.33
2023-07-22T06:12:32.207Z,4.93
2023-07-22T06:15:01.922Z,4.20
2023-07-22T06:17:30.221Z,4.93
2023-07-22T06:19:58.390Z,4.50
2023-07-22T06:22:26.467Z,3.90
2023-07-22T06:24:54.583Z,3.97
2023-07-22T06:27:23.189Z,5.50
2023-07-22T06:29:51.496Z,4.77
2023-07-22T06:32:20.927Z,10.30
2023-07-22T06:34:48.967Z,4.57
2023-07-22T06:37:17.191Z,4.10
2023-07-22T06:39:45.208Z,4.17
2023-07-22T06:42:13.260Z,5.60
2023-07-22T06:44:41.319Z,5.53
2023-07-22T06:47:09.659Z,4.73
2023-07-22T06:49:39.046Z,4.20
2023-07-22T06:52:08.493Z,5.67
2023-07-22T06:54:37.319Z,3.97
2023-07-22T06:57:07.123Z,5.83
2023-07-22T06:59:35.373Z,3.57
2023-07-22T07:02:05.019Z,3.17
2023-07-22T07:04:33.154Z,3.90
2023-07-22T07:07:03.723Z,5.13
2023-07-22T07:09:31.925Z,4.97
2023-07-22T07:12:00.099Z,3.83
2023-07-22T07:14:28.523Z,4.20
2023-07-22T07:16:57.041Z,5.07
2023-07-22T07:19:25.237Z,5.27
2023-07-22T07:21:53.446Z,5.20
2023-07-22T07:24:23.298Z,3.70
2023-07-22T07:26:51.407Z,3.70
2023-07-22T07:29:38.831Z,5.90
2023-07-22T07:32:08.088Z,5.33
2023-07-22T07:34:36.385Z,2.97
2023-07-22T07:37:04.646Z,3.37
2023-07-22T07:39:34.276Z,2.87
2023-07-22T07:42:02.350Z,3.03
2023-07-22T07:44:30.533Z,2.90
2023-07-22T07:46:58.522Z,3.40
2023-07-22T07:49:26.950Z,4.57
2023-07-22T07:51:55.166Z,2.93
2023-07-22T07:54:23.467Z,3.23
2023-07-22T07:56:53.053Z,3.87
2023-07-22T07:59:21.077Z,2.87
2023-07-22T08:01:49.193Z,2.83
2023-07-22T08:04:18.575Z,2.87
2023-07-22T08:06:47.317Z,2.50
2023-07-22T08:09:19.979Z,3.17
2023-07-22T08:11:48.126Z,3.70
2023-07-22T08:14:18.248Z,3.10
2023-07-22T08:16:46.546Z,2.70
2023-07-22T08:19:14.618Z,3.03
2023-07-22T08:21:42.934Z,2.97
2023-07-22T08:24:11.150Z,4.10
2023-07-22T08:26:39.241Z,3.30
2023-07-22T08:29:07.402Z,2.70
2023-07-22T08:31:37.322Z,3.17
2023-07-22T08:34:05.537Z,4.63
2023-07-22T08:36:33.671Z,2.95
2023-07-22T08:39:01.721Z,2.97
2023-07-22T08:41:31.864Z,3.33
2023-07-22T08:44:02.295Z,3.30
2023-07-22T08:46:32.055Z,3.40
2023-07-22T08:49:02.624Z,3.40
2023-07-22T08:51:33.538Z,4.03
2023-07-22T08:54:10.999Z,4.00
2023-07-22T08:56:40.944Z,4.20
2023-07-22T08:59:09.160Z,4.63
2023-07-22T09:01:38.340Z,5.37
2023-07-22T09:04:08.035Z,4.40
2023-07-22T09:06:36.960Z,4.47
2023-07-22T09:09:08.644Z,5.23
2023-07-22T09:11:37.279Z,5.15
2023-07-22T09:14:06.397Z,4.45
2023-07-22T09:16:35.194Z,4.75
2023-07-22T09:19:07.615Z,5.95
2023-07-22T09:21:37.173Z,5.35
2023-07-22T09:24:22.850Z,5.88
2023-07-22T09:26:51.246Z,6.35
2023-07-22T09:29:19.826Z,6.20
2023-07-22T09:31:52.440Z,5.93
2023-07-22T09:34:23.914Z,6.63
2023-07-22T09:36:53.632Z,6.20
2023-07-22T09:39:21.882Z,6.45
2023-07-22T09:41:50.233Z,6.32
2023-07-22T09:44:18.341Z,6.67
2023-07-22T09:46:50.544Z,6.47
2023-07-22T09:49:20.442Z,6.53
2023-07-22T09:52:02.141Z,7.43
2023-07-22T09:54:32.138Z,6.53
2023-07-22T09:57:00.889Z,7.40
2023-07-22T09:59:32.065Z,8.10
2023-07-22T10:02:03.820Z,6.70
2023-07-22T10:04:35.671Z,8.55
2023-07-22T10:07:06.110Z,5.83
2023-07-22T10:09:35.976Z,5.33
2023-07-22T10:12:05.002Z,5.03
2023-07-22T10:14:36.241Z,4.43
2023-07-22T10:17:07.566Z,5.50
2023-07-22T10:19:35.799Z,5.03
2023-07-22T10:22:06.884Z,6.07
2023-07-22T10:24:36.073Z,5.87
2023-07-22T10:27:04.777Z,5.37
2023-07-22T10:29:34.619Z,5.37
2023-07-22T10:32:02.727Z,4.80
2023-07-22T10:34:30.678Z,4.00
2023-07-22T10:36:59.461Z,4.33
2023-07-22T10:39:29.709Z,4.18
2023-07-22T10:42:05.041Z,4.63
2023-07-22T10:44:34.297Z,3.53
2023-07-22T10:47:02.385Z,3.80
2023-07-22T10:49:45.313Z,3.42
2023-07-22T10:52:14.729Z,3.33
2023-07-22T10:54:44.167Z,3.00
2023-07-22T10:57:26.981Z,4.32
2023-07-22T10:59:57.854Z,2.42
2023-07-22T11:02:27.679Z,3.67
2023-07-22T11:05:00.418Z,3.28
2023-07-22T11:07:35.846Z,2.83
2023-07-22T11:10:17.353Z,2.92
2023-07-22T11:12:46.494Z,2.70
2023-07-22T11:15:18.585Z,5.70
2023-07-22T11:17:46.820Z,2.40
2023-07-22T11:20:14.865Z,2.20
2023-07-22T11:22:44.586Z,2.58
2023-07-22T11:25:20.970Z,2.75
2023-07-22T11:27:49.063Z,2.38
2023-07-22T11:30:17.236Z,3.00
2023-07-22T11:32:46.252Z,2.15
2023-07-22T11:35:17.997Z,2.22
2023-07-22T11:37:45.950Z,1.95
2023-07-22T11:40:15.008Z,2.63
2023-07-22T11:42:46.490Z,2.40
2023-07-22T11:45:16.227Z,2.20
2023-07-22T11:47:45.804Z,2.45
2023-07-22T11:50:14.126Z,2.40
2023-07-22T11:52:42.172Z,1.90
2023-07-22T11:55:14.233Z,2.40
2023-07-22T11:57:54.545Z,1.90
2023-07-22T12:00:23.146Z,2.17
2023-07-22T12:02:53.192Z,2.40
2023-07-22T12:05:23.810Z,2.38
2023-07-22T12:07:51.826Z,2.85
2023-07-22T12:10:20.218Z,2.58
2023-07-22T12:12:50.862Z,2.60
2023-07-22T12:15:20.569Z,2.45
2023-07-22T12:17:50.575Z,2.22
2023-07-22T12:20:19.280Z,3.22
2023-07-22T12:22:47.515Z,2.60
2023-07-22T12:25:15.618Z,2.40
2023-07-22T12:27:43.596Z,2.67
2023-07-22T12:30:13.566Z,3.72
2023-07-22T12:32:41.577Z,2.30
2023-07-22T12:35:10.384Z,2.40
2023-07-22T12:37:38.879Z,2.60
2023-07-22T12:40:09.680Z,2.47
2023-07-22T12:42:38.445Z,2.60
2023-07-22T12:45:08.983Z,1.80
2023-07-22T12:47:38.938Z,2.78
2023-07-22T12:50:08.957Z,2.08
2023-07-22T12:52:37.600Z,3.10
2023-07-22T12:55:06.319Z,3.53
2023-07-22T12:57:34.307Z,3.35
2023-07-22T13:00:02.304Z,3.58
2023-07-22T13:02:30.357Z,2.80
2023-07-22T13:04:59.720Z,3.75
2023-07-22T13:07:27.964Z,2.35
2023-07-22T13:09:57.783Z,3.83
2023-07-22T13:12:25.780Z,4.03
2023-07-22T13:14:53.918Z,3.30
2023-07-22T13:17:22.009Z,2.33
2023-07-22T13:19:50.020Z,2.95
2023-07-22T13:22:19.449Z,3.10
2023-07-22T13:24:47.563Z,4.05
2023-07-22T13:27:15.590Z,3.15
2023-07-22T13:29:43.610Z,2.65
2023-07-22T13:32:11.884Z,2.53
2023-07-22T13:34:39.922Z,2.63
2023-07-22T13:37:08.060Z,3.28
2023-07-22T13:39:37.816Z,2.72
2023-07-22T13:42:06.210Z,2.47
2023-07-22T13:44:34.232Z,2.53
2023-07-22T13:47:02.511Z,3.03
2023-07-22T13:49:31.142Z,2.25
2023-07-22T13:51:59.227Z,3.17
2023-07-22T13:54:27.188Z,2.22
2023-07-22T13:56:56.522Z,2.47
2023-07-22T13:59:24.634Z,2.30
2023-07-22T14:01:52.611Z,2.70
2023-07-22T14:04:20.585Z,3.63
2023-07-22T14:06:48.586Z,2.60
2023-07-22T14:09:16.592Z,2.42
2023-07-22T14:11:44.659Z,3.50
2023-07-22T14:14:14.045Z,3.20
2023-07-22T14:16:42.436Z,2.47
2023-07-22T14:19:10.585Z,3.15
2023-07-22T14:21:38.605Z,3.63
2023-07-22T14:24:06.926Z,2.65
2023-07-22T14:26:34.878Z,4.32
2023-07-22T14:29:02.916Z,3.78
2023-07-22T14:31:32.426Z,2.42
2023-07-22T14:34:00.590Z,5.60
2023-07-22T14:36:28.563Z,2.20
2023-07-22T14:38:58.871Z,3.25
2023-07-22T14:41:27.227Z,2.22
2023-07-22T14:43:55.509Z,2.20
2023-07-22T14:46:23.660Z,2.85
2023-07-22T14:48:53.029Z,2.53
2023-07-22T14:51:21.168Z,2.58
2023-07-22T14:53:49.151Z,3.60
2023-07-22T14:56:17.162Z,2.38
2023-07-22T14:58:45.240Z,3.10
2023-07-22T15:01:13.642Z,2.45
2023-07-22T15:03:41.721Z,2.80
2023-07-22T15:06:11.406Z,2.22
2023-07-22T15:08:39.424Z,4.35
2023-07-22T15:11:08.840Z,2.97
2023-07-22T15:13:36.959Z,3.97
2023-07-22T15:16:05.422Z,3.55
2023-07-22T15:18:33.444Z,2.90
2023-07-22T15:21:01.524Z,5.00
2023-07-22T15:23:30.864Z,2.85
2023-07-22T15:25:59.269Z,2.65
2023-07-22T15:28:27.672Z,3.20
2023-07-22T15:30:56.198Z,4.70
2023-07-22T15:33:24.231Z,2.70
2023-07-22T15:35:52.216Z,4.20
2023-07-22T15:38:20.281Z,2.58
2023-07-22T15:40:49.734Z,5.70
2023-07-22T15:43:18.237Z,2.75
2023-07-22T15:45:46.430Z,2.92
2023-07-22T15:48:14.457Z,2.72
2023-07-22T15:50:42.593Z,2.80
2023-07-22T15:53:11.065Z,2.90
2023-07-22T15:55:39.053Z,2.40
2023-07-22T15:58:08.442Z,2.50
2023-07-22T16:00:36.482Z,2.50
2023-07-22T16:03:05.106Z,2.28
2023-07-22T16:05:33.167Z,2.10
2023-07-22T16:08:01.480Z,3.85
2023-07-22T16:10:29.627Z,2.08
2023-07-22T16:12:57.663Z,3.83
2023-07-22T16:15:27.814Z,3.00
2023-07-22T16:17:57.117Z,3.10
2023-07-22T16:20:25.168Z,2.80
2023-07-22T16:22:53.212Z,2.55
2023-07-22T16:25:21.365Z,2.40
2023-07-22T16:27:49.350Z,2.10
2023-07-22T16:30:17.463Z,2.72
2023-07-22T16:32:47.101Z,2.53
2023-07-22T16:35:15.219Z,2.65
2023-07-22T16:37:43.647Z,1.88
2023-07-22T16:40:12.792Z,2.10
2023-07-22T16:42:40.833Z,2.75
2023-07-22T16:45:10.099Z,2.75
2023-07-22T16:47:38.282Z,2.08
2023-07-22T16:50:09.747Z,2.83
2023-07-22T16:52:37.708Z,4.25
2023-07-22T16:55:07.926Z,2.78
2023-07-22T16:57:36.776Z,2.17
2023-07-22T17:00:06.101Z,3.08
2023-07-22T17:02:34.098Z,4.82
2023-07-22T17:05:02.208Z,3.65
2023-07-22T17:07:31.762Z,2.53
2023-07-22T17:09:59.742Z,2.42
2023-07-22T17:12:27.811Z,2.92
2023-07-22T17:14:55.862Z,1.95
2023-07-22T17:17:24.098Z,4.28
2023-07-22T17:19:52.136Z,2.47
2023-07-22T17:22:20.129Z,1.98
2023-07-22T17:24:49.565Z,3.13
2023-07-22T17:27:17.581Z,2.83
2023-07-22T17:29:45.566Z,2.53
2023-07-22T17:32:13.668Z,1.67
2023-07-22T17:34:41.716Z,2.03
2023-07-22T17:37:09.724Z,3.15
2023-07-22T17:39:37.760Z,2.50
2023-07-22T17:42:07.652Z,2.70
2023-07-22T17:44:35.874Z,2.10
2023-07-22T17:47:04.463Z,2.20
2023-07-22T17:49:32.763Z,2.50
2023-07-22T17:52:00.705Z,2.05
2023-07-22T17:54:28.707Z,2.70
2023-07-22T17:56:56.648Z,2.40
2023-07-22T17:59:26.113Z,2.65
2023-07-22T18:01:54.237Z,2.00
2023-07-22T18:04:22.238Z,2.40
2023-07-22T18:06:50.504Z,3.30
2023-07-22T18:09:18.730Z,2.35
2023-07-22T18:11:46.879Z,1.85
2023-07-22T18:14:15.200Z,2.30
2023-07-22T18:16:45.031Z,1.88
2023-07-22T18:19:13.074Z,4.65
2023-07-22T18:21:41.062Z,4.25
2023-07-22T18:24:10.383Z,3.40
2023-07-22T18:26:38.428Z,2.65
2023-07-22T18:29:06.413Z,3.15
2023-07-22T18:31:34.453Z,3.88
2023-07-22T18:34:04.033Z,2.38
2023-07-22T18:36:32.961Z,5.47
2023-07-22T18:39:01.023Z,5.00
2023-07-22T18:41:29.348Z,3.00
2023-07-22T18:43:57.593Z,9.95
2023-07-22T18:46:25.831Z,4.68
2023-07-22T18:48:53.867Z,3.25
2023-07-22T18:51:23.194Z,2.58
2023-07-22T18:53:51.250Z,4.32
2023-07-22T18:56:19.589Z,3.58
2023-07-22T18:58:47.558Z,3.60
2023-07-22T19:01:15.707Z,3.25
2023-07-22T19:03:43.836Z,2.83
2023-07-22T19:06:11.826Z,3.78
2023-07-22T19:08:41.169Z,5.00
2023-07-22T19:11:11.577Z,9.38
2023-07-22T19:13:39.912Z,2.97
2023-07-22T19:16:08.010Z,4.50
2023-07-22T19:18:36.112Z,4.25
2023-07-22T19:21:05.107Z,6.15
2023-07-22T19:23:33.637Z,4.82
2023-07-22T19:26:04.863Z,3.37
2023-07-22T19:28:33.973Z,6.68
2023-07-22T19:31:01.994Z,6.93
2023-07-22T19:33:30.041Z,4.68
2023-07-22T19:36:02.699Z,6.78
2023-07-22T19:38:31.016Z,3.80
2023-07-22T19:41:07.618Z,3.72
2023-07-22T19:43:36.105Z,6.73
2023-07-22T19:46:05.241Z,7.63
2023-07-22T19:48:34.777Z,8.90
2023-07-22T19:51:03.248Z,6.63
2023-07-22T19:53:31.641Z,4.20
2023-07-22T19:56:00.546Z,9.40
2023-07-22T19:58:29.932Z,6.40
2023-07-22T20:01:01.120Z,10.57
2023-07-22T20:03:29.900Z,3.63
2023-07-22T20:05:58.428Z,9.00
2023-07-22T20:08:26.528Z,7.07
2023-07-22T20:10:55.699Z,6.83
2023-07-22T20:13:25.047Z,6.33
2023-07-22T20:15:54.603Z,5.30
2023-07-22T20:18:22.850Z,9.20
2023-07-22T20:20:50.854Z,7.67
2023-07-22T20:23:18.871Z,5.73
2023-07-22T20:25:46.851Z,11.53
2023-07-22T20:28:14.811Z,6.90
2023-07-22T20:30:42.957Z,7.43
2023-07-22T20:33:12.307Z,10.20
2023-07-22T20:35:42.680Z,8.13
2023-07-22T20:38:10.765Z,9.13
2023-07-22T20:40:38.934Z,8.43
2023-07-22T20:43:07.244Z,9.13
2023-07-22T20:45:35.502Z,10.47
2023-07-22T20:48:03.798Z,9.07
2023-07-22T20:50:35.215Z,8.57
2023-07-22T20:53:03.471Z,8.47
2023-07-22T20:55:31.472Z,9.17
2023-07-22T20:57:59.430Z,9.30
2023-07-22T21:00:27.416Z,8.07
2023-07-22T21:02:55.518Z,9.20
2023-07-22T21:05:23.903Z,9.90
2023-07-22T21:07:53.243Z,14.30
2023-07-22T21:10:21.327Z,11.60
2023-07-22T21:12:49.355Z,8.93
2023-07-22T21:15:17.477Z,6.17
2023-07-22T21:17:46.471Z,7.87
2023-07-22T21:20:15.129Z,9.33
2023-07-22T21:22:43.121Z,8.13
2023-07-22T21:25:13.391Z,9.00
2023-07-22T21:27:48.619Z,15.70
2023-07-22T21:30:17.171Z,6.53
2023-07-22T21:32:45.193Z,10.77
2023-07-22T21:35:13.486Z,12.03
2023-07-22T21:37:41.556Z,7.93
2023-07-22T21:40:10.380Z,5.43
2023-07-22T21:42:39.756Z,8.93
2023-07-22T21:45:11.764Z,9.40
2023-07-22T21:47:39.842Z,7.17
2023-07-22T21:50:09.276Z,9.03
2023-07-22T21:52:37.440Z,9.23
2023-07-22T21:55:06.020Z,17.23
2023-07-22T21:57:34.260Z,13.93
2023-07-22T22:00:03.751Z,15.17
2023-07-22T22:02:31.849Z,37.27
2023-07-22T22:05:00.049Z,25.80
2023-07-22T22:07:28.149Z,18.73
2023-07-22T22:09:56.773Z,17.53
2023-07-22T22:12:24.800Z,12.73
2023-07-22T22:14:54.575Z,9.40
2023-07-22T22:17:23.940Z,10.03
2023-07-22T22:19:52.054Z,8.93
2023-07-22T22:22:20.089Z,9.77
2023-07-22T22:24:48.978Z,9.13
2023-07-22T22:27:17.671Z,8.17
2023-07-22T22:29:45.656Z,11.43
2023-07-22T22:32:13.888Z,7.73
2023-07-22T22:34:43.472Z,8.80
2023-07-22T22:37:11.453Z,8.17
2023-07-22T22:39:39.448Z,9.53
2023-07-22T22:42:08.160Z,9.80
2023-07-22T22:44:36.624Z,6.43
2023-07-22T22:47:04.801Z,11.30
2023-07-22T22:49:32.805Z,8.73
2023-07-22T22:52:03.994Z,8.77
2023-07-22T22:54:33.865Z,13.00
2023-07-22T22:57:01.830Z,7.80
2023-07-22T22:59:29.769Z,5.83
2023-07-22T23:01:57.902Z,7.87
2023-07-22T23:04:25.888Z,7.40
2023-07-22T23:06:53.860Z,6.57
2023-07-22T23:09:23.255Z,8.70
2023-07-22T23:11:51.312Z,6.10
2023-07-22T23:14:19.462Z,5.67
2023-07-22T23:16:47.428Z,7.27
2023-07-22T23:19:15.394Z,4.60
2023-07-22T23:21:43.345Z,8.40
2023-07-22T23:24:11.352Z,5.47
2023-07-22T23:26:40.732Z,6.53
2023-07-22T23:29:08.916Z,7.67
2023-07-22T23:31:37.106Z,5.43
2023-07-22T23:34:05.192Z,4.60
2023-07-22T23:36:33.176Z,5.00
2023-07-22T23:39:02.241Z,5.93
2023-07-22T23:41:30.902Z,6.53
2023-07-22T23:44:04.224Z,4.70
2023-07-22T23:46:33.000Z,5.73
2023-07-22T23:49:01.031Z,6.67
2023-07-22T23:51:29.783Z,7.53
2023-07-22T23:53:57.976Z,7.53
2023-07-22T23:56:25.990Z,5.83
2023-07-22T23:58:54.211Z,6.43
